Impacts METAR Board INFO
IDs:

KTPA - Tampa Intl Arpt, FL, US

Updated at: 1740 UTC 18 Nov 2017
Potential Impact None Slight Moderate High
Time18/05Z 18/06Z 18/07Z 18/08Z 18/09Z 18/10Z 18/11Z 18/12Z 18/13Z 18/14Z 18/15Z 18/16Z 18/17Z
VIS10 10 10 10 10 10 9 10 8 10 10 10 10
CIG-- -- -- -- -- -- -- -- -- -- -- -- --
CoverCLRCLRCLRCLRCLRCLRCLRCLRCLRCLRCLRFEWFEW
FltCatVFRVFRVFRVFRVFRVFRVFRVFRVFRVFRVFRVFRVFR
WX--------------------------
WDir000000000120120160230
WSpd0 0 0 0 0 0 0 0 0 3 6 7 8
WGst-- -- -- -- -- -- -- -- -- -- -- -- --
Raw hourly METARs
KTPA 180453Z 00000KT 10SM CLR 17/13 A3007 RMK AO2 SLP183 T01720128 402670144
KTPA 180553Z 00000KT 10SM CLR 18/13 A3006 RMK AO2 SLP177 T01780128 10200 20167 58010
KTPA 180653Z 00000KT 10SM CLR 17/13 A3003 RMK AO2 SLP170 T01670128
KTPA 180753Z 00000KT 10SM CLR 17/13 A3002 RMK AO2 SLP167 T01670133
KTPA 180853Z 00000KT 10SM CLR 15/12 A3002 RMK AO2 SLP166 T01500122 56012
KTPA 180953Z 00000KT 10SM CLR 16/13 A3003 RMK AO2 SLP168 T01560128
KTPA 181053Z 00000KT 9SM CLR 16/13 A3003 RMK AO2 SLP169 T01610133
KTPA 181153Z 00000KT 10SM CLR 16/13 A3004 RMK AO2 SLP172 T01610133 10178 20144 53006
KTPA 181253Z 00000KT 8SM CLR 17/13 A3006 RMK AO2 SLP177 T01720133
KTPA 181353Z 12003KT 10SM CLR 20/14 A3006 RMK AO2 SLP178 T02000144
KTPA 181453Z 12006KT 10SM CLR 23/13 A3006 RMK AO2 SLP179 T02280133 51007
KTPA 181553Z 16007KT 10SM FEW050 24/14 A3005 RMK AO2 SLP174 T02440139
KTPA 181653Z 23008KT 10SM FEW045 FEW300 25/15 A3003 RMK AO2 SLP167 T02500150